Drachten Airfield

EHDR · Friesland, 荷兰

罗盘
风向 的 风向 的 风向 到 风向 260° Drachten Airfield 7/25
风: 14 kt, 4 beaufort

14 kt

1 kt
改变
0 1.000 2.000 3.000 4.000 5.000
FEW 4.600 ft
METAR EHLW 011625Z AUTO 26014KT 230V290 9999 FEW046 15/10 Q1006 BLU

METAR Drachten Airfield - EHDR

Drachten Airfield是Drachten,荷兰中的小机场。 该机场有一条跑道: 7/25. 该领域的国际民航组织标志是EHDR.

这份报告是针对2022年10月1日 18:25, 当地时间在Leeuwarden Air Base进行的。

机场观察

风向为260°,速度为14 kt。 风向在230°和290°之间变化。

可见度为10 km 或者更多。

有几云在4.600 ft的高度。 没有观察到天花板。

温度和风寒是15 °C。 露点为10 °C,相对湿度为72%。 海平面上的气压为1006 hPa (QNH)。

白天

今天,太阳从07:37升起,在19:13降落。 这适用于Drachten Airfield,世界夏令时可能有所不同。 当地时间与世界标准时间之间的时差为+2 小时。 夏令时目前正在进行中。

公司介绍

我们没有关于这个机场的公司信息。

体会

到Vliegles.nl去找飞行课程,跳伞和其他飞行体验。 浏览页面,了解Drachten Airfield附近所有可用的活动。 你也可以使用搜索功能来寻找你所在地附近的特定飞行课程、跳伞或其他飞行体验。

跑道

Id 标题 侧风 逆风 侧风 %
7/25 074°-254° 1 kt 14 kt 10 %

逆风成分最大的方向会被突出显示,并用于横风计算。 这并不一定意味着这个方向在使用。

乌云

4.600 ft FEW 几云

温度 & 天气

温度 15 °C
露点 10 °C
相对湿度 72%
Kp-index 1 (0-9)

白天

日出
07:38
中午
13:26
日落
19:14 (29m)

小工具

你想在你的网站上有一个关于Drachten Airfield的当前航空天气(METAR)的小部件吗?

</> 显示HTML代码

我们和第三方通过cookies跟踪您在我们网站上的上网行为。如果您继续,我们认为您同意我们的cookie政策。 了解更多